Time;durP1;ratioP1;P1;durP2;ratioP2;P2;SDS_P1;SDS_P2;PMS_P1;PMS_P2;Temp;Humidity;BMP_temperature;BMP_pressure;BME280_temperature;BME280_humidity;BME280_pressure;Samples;Min_cycle;Max_cycle;Signal;HPM_P1;HPM_P2
2019/05/15 00:00:45;;;;;;;1.61;1.24;;;;;;;19.27;41.67;101536.62;;;;-58
2019/05/15 00:03:42;;;;;;;1.30;1.20;;;;;;;19.26;41.67;101533.71;;;;-58
2019/05/15 00:06:42;;;;;;;1.25;1.17;;;;;;;19.25;41.71;101530.42;;;;-58
2019/05/15 00:09:42;;;;;;;1.11;1.10;;;;;;;19.26;41.69;101527.02;;;;-58
2019/05/15 00:12:42;;;;;;;1.21;1.11;;;;;;;19.25;41.71;101525.96;;;;-58
2019/05/15 00:15:42;;;;;;;1.29;1.15;;;;;;;19.24;41.71;101521.36;;;;-59
2019/05/15 00:18:42;;;;;;;1.10;1.10;;;;;;;19.24;41.72;101524.48;;;;-58
2019/05/15 00:21:42;;;;;;;1.10;1.10;;;;;;;19.23;41.69;101521.42;;;;-59
2019/05/15 00:24:42;;;;;;;1.40;1.30;;;;;;;19.22;41.70;101513.16;;;;-57
2019/05/15 00:27:42;;;;;;;1.44;1.20;;;;;;;19.22;41.74;101520.52;;;;-58
2019/05/15 00:30:42;;;;;;;1.27;1.19;;;;;;;19.22;41.70;101505.66;;;;-58
2019/05/15 00:33:42;;;;;;;1.34;1.24;;;;;;;19.21;41.74;101511.08;;;;-58
2019/05/15 00:36:42;;;;;;;1.23;1.13;;;;;;;19.22;41.68;101497.45;;;;-58
2019/05/15 00:39:42;;;;;;;1.22;1.19;;;;;;;19.21;41.77;101501.26;;;;-58
2019/05/15 00:42:42;;;;;;;1.15;1.14;;;;;;;19.20;41.74;101495.95;;;;-59
2019/05/15 00:45:42;;;;;;;1.24;1.19;;;;;;;19.20;41.75;101490.97;;;;-59
2019/05/15 00:48:42;;;;;;;1.13;1.13;;;;;;;19.20;41.74;101487.73;;;;-58
2019/05/15 00:51:42;;;;;;;1.19;1.10;;;;;;;19.19;41.74;101475.61;;;;-58
2019/05/15 00:54:42;;;;;;;1.24;1.20;;;;;;;19.19;41.69;101472.42;;;;-58
2019/05/15 00:57:42;;;;;;;1.37;1.27;;;;;;;19.19;41.66;101467.23;;;;-58
2019/05/15 01:00:42;;;;;;;1.30;1.20;;;;;;;19.18;41.75;101465.17;;;;-59
2019/05/15 01:03:42;;;;;;;1.21;1.15;;;;;;;19.17;41.75;101470.73;;;;-58
2019/05/15 01:06:42;;;;;;;1.23;1.17;;;;;;;19.17;41.74;101464.77;;;;-59
2019/05/15 01:09:42;;;;;;;2.49;1.23;;;;;;;19.17;41.67;101463.09;;;;-60
2019/05/15 01:12:42;;;;;;;1.19;1.11;;;;;;;19.17;41.76;101460.86;;;;-58
2019/05/15 01:15:42;;;;;;;1.26;1.18;;;;;;;19.16;41.70;101458.51;;;;-59
2019/05/15 01:18:42;;;;;;;1.10;1.07;;;;;;;19.16;41.73;101455.16;;;;-58
2019/05/15 01:21:42;;;;;;;1.30;1.20;;;;;;;19.16;41.74;101456.56;;;;-59
2019/05/15 01:24:42;;;;;;;1.33;1.10;;;;;;;19.15;41.81;101453.71;;;;-59
2019/05/15 01:27:42;;;;;;;1.31;1.21;;;;;;;19.16;41.69;101456.45;;;;-58
2019/05/15 01:30:42;;;;;;;1.33;1.23;;;;;;;19.14;41.78;101446.44;;;;-58
2019/05/15 01:33:42;;;;;;;1.17;1.15;;;;;;;19.14;41.75;101447.77;;;;-58
2019/05/15 01:36:42;;;;;;;1.30;1.20;;;;;;;19.13;41.75;101445.77;;;;-58
2019/05/15 01:39:42;;;;;;;1.28;1.18;;;;;;;19.14;41.75;101445.72;;;;-58
2019/05/15 01:42:42;;;;;;;1.20;1.11;;;;;;;19.13;41.76;101442.11;;;;-58
2019/05/15 01:45:42;;;;;;;1.28;1.20;;;;;;;19.12;41.76;101440.75;;;;-60
2019/05/15 01:48:42;;;;;;;1.23;1.13;;;;;;;19.12;41.71;101439.75;;;;-59
2019/05/15 01:51:42;;;;;;;1.30;1.20;;;;;;;19.12;41.68;101440.65;;;;-59
2019/05/15 01:54:42;;;;;;;1.28;1.20;;;;;;;19.12;41.76;101435.44;;;;-58
2019/05/15 01:57:42;;;;;;;1.31;1.21;;;;;;;19.11;41.77;101432.16;;;;-58
2019/05/15 02:00:42;;;;;;;1.30;1.20;;;;;;;19.11;41.76;101422.16;;;;-58
2019/05/15 02:03:43;;;;;;;1.30;1.20;;;;;;;19.11;41.76;101424.28;;;;-59
2019/05/15 02:06:42;;;;;;;1.36;1.26;;;;;;;19.09;41.79;101426.84;;;;-58
2019/05/15 02:09:42;;;;;;;1.45;1.23;;;;;;;19.09;41.80;101422.31;;;;-58
2019/05/15 02:12:42;;;;;;;1.30;1.20;;;;;;;19.09;41.72;101420.64;;;;-57
2019/05/15 02:15:42;;;;;;;1.39;1.29;;;;;;;19.09;41.79;101422.48;;;;-58
2019/05/15 02:18:42;;;;;;;1.39;1.15;;;;;;;19.09;41.80;101421.36;;;;-58
2019/05/15 02:21:42;;;;;;;1.72;1.17;;;;;;;19.08;41.77;101420.31;;;;-58
2019/05/15 02:24:42;;;;;;;1.17;1.15;;;;;;;19.07;41.76;101420.02;;;;-58
2019/05/15 02:27:42;;;;;;;1.30;1.20;;;;;;;19.08;41.75;101421.48;;;;-58
2019/05/15 02:30:42;;;;;;;1.29;1.23;;;;;;;19.07;41.71;101424.54;;;;-58
2019/05/15 02:33:42;;;;;;;1.28;1.18;;;;;;;19.07;41.75;101424.27;;;;-58
2019/05/15 02:36:42;;;;;;;1.19;1.19;;;;;;;19.06;41.74;101425.98;;;;-58
2019/05/15 02:39:42;;;;;;;1.30;1.20;;;;;;;19.06;41.77;101422.69;;;;-58
2019/05/15 02:42:42;;;;;;;1.18;1.13;;;;;;;19.06;41.77;101416.73;;;;-58
2019/05/15 02:45:42;;;;;;;1.27;1.17;;;;;;;19.06;41.79;101414.83;;;;-58
2019/05/15 02:48:42;;;;;;;1.31;1.21;;;;;;;19.06;41.75;101419.67;;;;-58
2019/05/15 02:51:42;;;;;;;1.43;1.33;;;;;;;19.05;41.79;101421.46;;;;-59
2019/05/15 02:54:42;;;;;;;1.34;1.24;;;;;;;19.05;41.74;101423.86;;;;-58
2019/05/15 02:57:42;;;;;;;1.40;1.30;;;;;;;19.05;41.75;101418.44;;;;-58
2019/05/15 03:00:42;;;;;;;1.08;1.08;;;;;;;19.04;41.78;101418.04;;;;-58
2019/05/15 03:03:42;;;;;;;1.23;1.20;;;;;;;19.04;41.72;101420.06;;;;-58
2019/05/15 03:06:42;;;;;;;1.40;1.30;;;;;;;19.04;41.79;101422.56;;;;-58
2019/05/15 03:09:42;;;;;;;1.40;1.30;;;;;;;19.03;41.78;101419.66;;;;-58
2019/05/15 03:12:42;;;;;;;1.29;1.20;;;;;;;19.03;41.79;101420.99;;;;-58
2019/05/15 03:15:42;;;;;;;1.30;1.20;;;;;;;19.02;41.76;101415.84;;;;-58
2019/05/15 03:18:42;;;;;;;1.33;1.23;;;;;;;19.02;41.69;101412.73;;;;-58
2019/05/15 03:21:42;;;;;;;1.40;1.30;;;;;;;19.02;41.81;101406.70;;;;-59
2019/05/15 03:24:42;;;;;;;1.30;1.20;;;;;;;19.01;41.83;101408.60;;;;-58
2019/05/15 03:27:42;;;;;;;1.29;1.19;;;;;;;19.01;41.74;101405.23;;;;-59
2019/05/15 03:30:42;;;;;;;1.40;1.30;;;;;;;19.00;41.78;101404.19;;;;-54
2019/05/15 03:33:42;;;;;;;1.36;1.26;;;;;;;19.00;41.79;101405.08;;;;-54
2019/05/15 03:36:42;;;;;;;1.21;1.13;;;;;;;19.00;41.79;101402.83;;;;-54
2019/05/15 03:39:42;;;;;;;1.39;1.29;;;;;;;19.00;41.75;101398.83;;;;-53
2019/05/15 03:42:42;;;;;;;1.30;1.20;;;;;;;19.01;41.73;101403.08;;;;-54
2019/05/15 03:45:42;;;;;;;1.28;1.20;;;;;;;19.03;41.75;101404.43;;;;-54
2019/05/15 03:48:42;;;;;;;1.35;1.25;;;;;;;19.04;41.75;101400.75;;;;-54
2019/05/15 03:51:42;;;;;;;1.30;1.20;;;;;;;19.06;41.81;101400.93;;;;-54
2019/05/15 03:54:42;;;;;;;1.38;1.28;;;;;;;19.07;41.72;101397.92;;;;-54
2019/05/15 03:57:42;;;;;;;1.25;1.20;;;;;;;19.11;41.67;101397.72;;;;-54
2019/05/15 04:00:42;;;;;;;1.23;1.16;;;;;;;19.17;41.75;101401.42;;;;-54
2019/05/15 04:03:42;;;;;;;1.21;1.20;;;;;;;19.20;41.72;101393.35;;;;-54
2019/05/15 04:06:42;;;;;;;1.32;1.22;;;;;;;19.24;41.78;101396.61;;;;-55
2019/05/15 04:09:42;;;;;;;1.16;1.16;;;;;;;19.30;41.74;101398.03;;;;-54
2019/05/15 04:12:42;;;;;;;1.30;1.20;;;;;;;19.35;41.77;101393.91;;;;-54
2019/05/15 04:15:42;;;;;;;1.37;1.27;;;;;;;19.41;41.84;101391.72;;;;-54
2019/05/15 04:18:42;;;;;;;1.40;1.30;;;;;;;19.45;41.83;101395.92;;;;-54
2019/05/15 04:21:42;;;;;;;1.21;1.16;;;;;;;19.51;41.81;101395.60;;;;-54
2019/05/15 04:24:42;;;;;;;1.18;1.18;;;;;;;19.57;41.83;101394.67;;;;-55
2019/05/15 04:27:42;;;;;;;1.29;1.20;;;;;;;19.60;41.83;101393.36;;;;-54
2019/05/15 04:30:42;;;;;;;1.15;1.13;;;;;;;19.65;41.82;101389.86;;;;-57
2019/05/15 04:33:42;;;;;;;1.55;1.33;;;;;;;19.70;41.65;101393.27;;;;-56
2019/05/15 04:36:42;;;;;;;1.57;1.29;;;;;;;19.71;41.65;101390.38;;;;-55
2019/05/15 04:39:42;;;;;;;1.30;1.20;;;;;;;19.75;41.46;101394.91;;;;-56
2019/05/15 04:42:42;;;;;;;1.46;1.35;;;;;;;19.79;41.55;101402.73;;;;-55
2019/05/15 04:45:42;;;;;;;2.45;1.23;;;;;;;19.83;41.52;101404.66;;;;-55
2019/05/15 04:48:42;;;;;;;1.57;1.29;;;;;;;19.86;41.49;101405.95;;;;-55
2019/05/15 04:51:42;;;;;;;2.58;1.30;;;;;;;19.93;41.45;101407.53;;;;-56
2019/05/15 04:54:42;;;;;;;1.59;1.28;;;;;;;19.95;41.51;101407.47;;;;-55
2019/05/15 04:57:42;;;;;;;1.36;1.26;;;;;;;19.98;41.47;101409.59;;;;-55
2019/05/15 05:00:42;;;;;;;1.48;1.33;;;;;;;19.99;41.54;101410.21;;;;-56
2019/05/15 05:03:42;;;;;;;1.60;1.23;;;;;;;20.03;41.45;101407.25;;;;-56
2019/05/15 05:06:42;;;;;;;1.43;1.26;;;;;;;20.06;41.38;101413.30;;;;-56
2019/05/15 05:09:42;;;;;;;1.53;1.40;;;;;;;20.08;41.46;101414.66;;;;-51
2019/05/15 05:12:42;;;;;;;1.63;1.28;;;;;;;20.12;41.39;101412.64;;;;-59
2019/05/15 05:15:42;;;;;;;1.31;1.21;;;;;;;20.13;41.46;101418.22;;;;-58
2019/05/15 05:18:42;;;;;;;1.27;1.19;;;;;;;20.15;41.36;101415.98;;;;-55
2019/05/15 05:21:42;;;;;;;1.40;1.30;;;;;;;20.16;41.50;101418.06;;;;-50
2019/05/15 05:24:42;;;;;;;1.43;1.33;;;;;;;20.20;41.32;101412.48;;;;-50
2019/05/15 05:27:42;;;;;;;1.31;1.21;;;;;;;20.20;41.44;101411.98;;;;-55
2019/05/15 05:30:42;;;;;;;1.77;1.29;;;;;;;20.20;41.32;101417.13;;;;-54
2019/05/15 05:33:42;;;;;;;1.30;1.20;;;;;;;20.20;41.38;101415.11;;;;-56
2019/05/15 05:36:41;;;;;;;1.40;1.30;;;;;;;20.21;41.41;101415.67;;;;-54
2019/05/15 05:39:42;;;;;;;1.54;1.30;;;;;;;20.22;41.37;101416.86;;;;-55
2019/05/15 05:42:42;;;;;;;1.49;1.31;;;;;;;20.24;41.43;101412.72;;;;-51
2019/05/15 05:45:42;;;;;;;1.35;1.25;;;;;;;20.24;41.39;101409.63;;;;-50
2019/05/15 05:48:42;;;;;;;1.38;1.28;;;;;;;20.26;41.38;101407.35;;;;-55
2019/05/15 05:51:42;;;;;;;1.74;1.30;;;;;;;20.25;41.34;101400.46;;;;-59
2019/05/15 05:54:42;;;;;;;1.16;1.13;;;;;;;20.28;41.29;101400.08;;;;-57
2019/05/15 05:57:42;;;;;;;4.13;1.44;;;;;;;20.29;41.20;101399.85;;;;-57
2019/05/15 06:00:42;;;;;;;1.63;1.21;;;;;;;20.31;41.22;101401.27;;;;-57
2019/05/15 06:03:42;;;;;;;2.98;1.20;;;;;;;20.31;41.18;101400.14;;;;-57
2019/05/15 06:06:42;;;;;;;2.74;1.33;;;;;;;20.32;41.11;101399.30;;;;-57
2019/05/15 06:09:42;;;;;;;1.97;1.30;;;;;;;20.32;41.14;101404.33;;;;-58
2019/05/15 06:12:42;;;;;;;1.47;1.36;;;;;;;20.33;41.07;101403.22;;;;-59
2019/05/15 06:15:42;;;;;;;1.97;1.20;;;;;;;20.32;41.12;101400.64;;;;-53
2019/05/15 06:18:42;;;;;;;1.44;1.27;;;;;;;20.32;41.08;101407.36;;;;-54
2019/05/15 06:21:42;;;;;;;1.51;1.25;;;;;;;20.30;41.14;101404.66;;;;-59
2019/05/15 06:24:42;;;;;;;1.89;1.20;;;;;;;20.31;41.19;101404.34;;;;-55
2019/05/15 06:27:42;;;;;;;1.33;1.18;;;;;;;20.30;41.11;101406.95;;;;-56
2019/05/15 06:30:42;;;;;;;1.37;1.27;;;;;;;20.30;41.10;101401.98;;;;-54
2019/05/15 06:33:42;;;;;;;1.31;1.20;;;;;;;20.29;41.15;101400.19;;;;-54
2019/05/15 06:36:41;;;;;;;1.63;1.26;;;;;;;20.30;41.04;101400.77;;;;-54
2019/05/15 06:39:42;;;;;;;1.76;1.40;;;;;;;20.31;41.05;101399.58;;;;-51
2019/05/15 06:42:42;;;;;;;3.27;1.59;;;;;;;20.09;38.04;101391.39;;;;-49
2019/05/15 06:45:42;;;;;;;4.26;1.55;;;;;;;19.92;36.17;101393.17;;;;-55
2019/05/15 06:48:42;;;;;;;3.09;1.70;;;;;;;19.86;36.41;101393.50;;;;-52
2019/05/15 06:51:42;;;;;;;3.02;1.59;;;;;;;19.78;35.06;101394.41;;;;-57
2019/05/15 06:54:41;;;;;;;2.79;1.60;;;;;;;19.70;35.17;101398.41;;;;-52
2019/05/15 06:57:42;;;;;;;2.04;1.67;;;;;;;19.67;34.91;101402.76;;;;-58
2019/05/15 07:00:42;;;;;;;2.05;1.74;;;;;;;19.62;34.67;101404.81;;;;-53
2019/05/15 07:03:42;;;;;;;3.91;1.70;;;;;;;19.60;34.06;101397.44;;;;-52
2019/05/15 07:06:42;;;;;;;2.11;1.65;;;;;;;19.54;33.35;101403.55;;;;-57
2019/05/15 07:09:42;;;;;;;3.33;1.61;;;;;;;19.57;34.00;101405.06;;;;-60
2019/05/15 07:12:42;;;;;;;1.78;1.48;;;;;;;19.56;33.78;101400.59;;;;-57
2019/05/15 07:15:41;;;;;;;5.38;1.81;;;;;;;19.60;33.95;101395.81;;;;-53
2019/05/15 07:18:41;;;;;;;2.40;1.65;;;;;;;19.71;35.30;101392.28;;;;-52
2019/05/15 07:21:42;;;;;;;2.67;1.56;;;;;;;19.79;35.27;101393.86;;;;-54
2019/05/15 07:24:42;;;;;;;2.45;1.87;;;;;;;19.85;35.48;101386.23;;;;-58
2019/05/15 07:27:42;;;;;;;2.53;1.90;;;;;;;19.92;36.17;101381.33;;;;-52
2019/05/15 07:30:42;;;;;;;5.71;1.93;;;;;;;19.98;36.60;101379.09;;;;-54
2019/05/15 07:33:42;;;;;;;2.44;1.78;;;;;;;20.02;36.83;101377.19;;;;-53
2019/05/15 07:36:42;;;;;;;4.27;1.71;;;;;;;20.09;36.71;101374.95;;;;-55
2019/05/15 07:39:42;;;;;;;3.52;1.75;;;;;;;20.13;36.94;101376.19;;;;-50
2019/05/15 07:42:42;;;;;;;5.75;1.74;;;;;;;20.17;37.12;101379.95;;;;-57
2019/05/15 07:45:42;;;;;;;2.04;1.65;;;;;;;20.20;37.22;101379.44;;;;-57
2019/05/15 07:48:42;;;;;;;5.11;1.80;;;;;;;20.24;37.06;101381.28;;;;-56
2019/05/15 07:51:42;;;;;;;2.78;1.73;;;;;;;20.28;37.10;101380.84;;;;-53
2019/05/15 07:54:42;;;;;;;2.12;1.64;;;;;;;20.30;37.19;101375.03;;;;-58
2019/05/15 07:57:41;;;;;;;7.19;1.62;;;;;;;20.34;37.49;101375.25;;;;-52
2019/05/15 08:00:41;;;;;;;2.01;1.51;;;;;;;20.35;37.63;101374.31;;;;-57
2019/05/15 08:03:42;;;;;;;3.92;1.80;;;;;;;20.42;39.01;101373.19;;;;-50
2019/05/15 08:06:42;;;;;;;4.57;1.80;;;;;;;20.45;38.68;101366.88;;;;-52
2019/05/15 08:09:42;;;;;;;7.77;1.85;;;;;;;20.48;39.73;101360.27;;;;-55
2019/05/15 08:12:42;;;;;;;4.89;1.66;;;;;;;20.51;39.65;101362.78;;;;-61
2019/05/15 08:15:41;;;;;;;7.15;1.92;;;;;;;20.53;39.23;101367.31;;;;-56
2019/05/15 08:18:41;;;;;;;6.25;1.83;;;;;;;20.54;39.92;101362.71;;;;-60
2019/05/15 08:21:42;;;;;;;7.32;1.94;;;;;;;20.54;38.34;101360.89;;;;-54
2019/05/15 08:24:42;;;;;;;9.08;1.92;;;;;;;20.54;39.04;101352.54;;;;-57
2019/05/15 08:27:42;;;;;;;8.10;1.93;;;;;;;20.53;38.62;101357.30;;;;-58
2019/05/15 08:30:42;;;;;;;2.87;1.69;;;;;;;20.52;38.93;101352.77;;;;-59
2019/05/15 08:33:42;;;;;;;3.19;1.71;;;;;;;20.51;38.81;101349.81;;;;-58
2019/05/15 08:36:42;;;;;;;4.33;1.70;;;;;;;20.49;38.73;101350.75;;;;-58
2019/05/15 08:39:42;;;;;;;2.84;1.55;;;;;;;20.49;38.76;101349.03;;;;-59
2019/05/15 08:42:41;;;;;;;3.65;1.70;;;;;;;20.47;38.71;101338.23;;;;-58
2019/05/15 08:45:42;;;;;;;5.16;1.65;;;;;;;20.47;38.87;101343.27;;;;-59
2019/05/15 08:48:42;;;;;;;5.07;1.72;;;;;;;20.45;38.89;101332.92;;;;-59
2019/05/15 08:51:42;;;;;;;2.42;1.54;;;;;;;20.44;38.91;101333.64;;;;-58
2019/05/15 08:54:42;;;;;;;3.71;1.53;;;;;;;20.42;38.87;101329.67;;;;-58
2019/05/15 08:57:42;;;;;;;2.83;1.69;;;;;;;20.38;37.22;101330.86;;;;-51
2019/05/15 09:00:42;;;;;;;2.75;1.81;;;;;;;20.34;37.44;101328.39;;;;-52
2019/05/15 09:03:42;;;;;;;3.03;1.71;;;;;;;20.30;36.96;101323.59;;;;-53
2019/05/15 09:06:42;;;;;;;1.91;1.54;;;;;;;20.27;37.18;101322.92;;;;-52
2019/05/15 09:09:42;;;;;;;3.22;1.74;;;;;;;20.24;37.23;101312.73;;;;-52
2019/05/15 09:12:42;;;;;;;2.02;1.70;;;;;;;20.22;37.22;101311.95;;;;-52
2019/05/15 09:15:42;;;;;;;3.43;1.83;;;;;;;20.20;37.40;101309.00;;;;-52
2019/05/15 09:18:42;;;;;;;2.49;1.76;;;;;;;20.19;37.57;101299.70;;;;-52
2019/05/15 09:21:41;;;;;;;2.06;1.59;;;;;;;20.18;37.50;101302.67;;;;-58
2019/05/15 09:24:42;;;;;;;2.30;1.69;;;;;;;20.17;37.45;101296.98;;;;-52
2019/05/15 09:27:42;;;;;;;1.95;1.65;;;;;;;20.18;37.80;101293.95;;;;-51
2019/05/15 09:30:42;;;;;;;3.68;1.81;;;;;;;20.19;37.70;101279.42;;;;-52
2019/05/15 09:33:42;;;;;;;4.46;1.60;;;;;;;20.19;37.91;101275.39;;;;-53
2019/05/15 09:36:42;;;;;;;3.61;1.71;;;;;;;20.19;38.12;101268.19;;;;-51
2019/05/15 09:39:41;;;;;;;4.67;1.81;;;;;;;20.19;38.28;101265.67;;;;-51
2019/05/15 09:42:41;;;;;;;4.51;1.80;;;;;;;20.19;38.36;101262.47;;;;-51
2019/05/15 09:45:41;;;;;;;4.07;1.68;;;;;;;20.18;38.46;101260.02;;;;-52
2019/05/15 09:48:42;;;;;;;2.86;1.79;;;;;;;20.19;38.56;101258.79;;;;-51
2019/05/15 09:51:42;;;;;;;3.82;1.67;;;;;;;20.19;38.74;101255.84;;;;-53
2019/05/15 09:54:42;;;;;;;2.55;1.51;;;;;;;20.20;38.83;101248.77;;;;-58
2019/05/15 09:57:41;;;;;;;2.83;1.65;;;;;;;20.19;38.97;101247.39;;;;-57
2019/05/15 10:00:41;;;;;;;2.48;1.50;;;;;;;20.19;39.03;101245.55;;;;-54
2019/05/15 10:03:42;;;;;;;1.75;1.57;;;;;;;20.20;39.15;101243.08;;;;-58
2019/05/15 10:06:41;;;;;;;3.99;1.50;;;;;;;20.20;39.10;101243.75;;;;-54
2019/05/15 10:09:42;;;;;;;3.21;1.71;;;;;;;20.20;38.76;101234.47;;;;-54
2019/05/15 10:12:42;;;;;;;5.91;1.63;;;;;;;20.22;38.66;101233.40;;;;-54
2019/05/15 10:15:42;;;;;;;3.55;1.57;;;;;;;20.20;39.15;101233.63;;;;-52
2019/05/15 10:18:41;;;;;;;2.93;1.58;;;;;;;20.20;39.21;101227.81;;;;-52
2019/05/15 10:21:41;;;;;;;2.83;1.67;;;;;;;20.19;39.22;101225.31;;;;-51
2019/05/15 10:24:41;;;;;;;2.61;1.50;;;;;;;20.18;39.21;101227.98;;;;-52
2019/05/15 10:27:42;;;;;;;6.01;1.69;;;;;;;20.19;39.29;101222.39;;;;-51
2019/05/15 10:30:42;;;;;;;2.32;1.57;;;;;;;20.19;39.30;101220.11;;;;-50
2019/05/15 10:33:42;;;;;;;2.35;1.59;;;;;;;20.18;39.45;101227.31;;;;-53
2019/05/15 10:36:42;;;;;;;2.51;1.60;;;;;;;20.18;39.41;101221.91;;;;-51
2019/05/15 10:42:45;;;;;;;3.62;1.69;;;;;;;20.41;38.98;101209.27;;;;-45
2019/05/15 10:45:46;;;;;;;4.19;1.65;;;;;;;20.51;38.76;101203.25;;;;-46
2019/05/15 10:48:45;;;;;;;3.97;1.72;;;;;;;20.56;38.63;101198.31;;;;-46
2019/05/15 10:51:46;;;;;;;4.83;1.62;;;;;;;20.59;38.41;101200.08;;;;-45
2019/05/15 10:54:46;;;;;;;5.28;1.65;;;;;;;20.56;38.62;101189.77;;;;-45
2019/05/15 11:00:31;;;;;;;1.61;1.50;;;;;;;20.54;38.75;101188.20;;;;-44
2019/05/15 11:03:31;;;;;;;2.22;1.69;;;;;;;20.54;38.67;101191.05;;;;-44
2019/05/15 11:06:31;;;;;;;3.37;1.72;;;;;;;20.50;37.99;101188.33;;;;-44
2019/05/15 11:09:31;;;;;;;1.91;1.47;;;;;;;20.46;38.38;101192.13;;;;-44
2019/05/15 11:12:31;;;;;;;3.70;1.61;;;;;;;20.44;38.38;101180.58;;;;-44
2019/05/15 11:15:31;;;;;;;2.30;1.68;;;;;;;20.41;38.45;101181.53;;;;-44
2019/05/15 11:18:31;;;;;;;2.18;1.60;;;;;;;20.39;38.48;101185.28;;;;-44
2019/05/15 11:21:31;;;;;;;2.66;1.53;;;;;;;20.39;38.49;101174.37;;;;-44
2019/05/15 11:24:31;;;;;;;2.27;1.53;;;;;;;20.37;38.49;101178.63;;;;-44
2019/05/15 11:27:31;;;;;;;3.04;1.50;;;;;;;20.37;38.35;101168.05;;;;-47
2019/05/15 11:30:31;;;;;;;3.53;1.53;;;;;;;20.34;38.37;101159.35;;;;-47
2019/05/15 11:33:31;;;;;;;2.49;1.66;;;;;;;20.33;38.49;101160.13;;;;-47
2019/05/15 11:36:31;;;;;;;4.28;1.65;;;;;;;20.32;38.55;101153.94;;;;-48
2019/05/15 11:39:31;;;;;;;2.11;1.57;;;;;;;20.31;38.50;101155.33;;;;-48
2019/05/15 11:42:31;;;;;;;2.11;1.50;;;;;;;20.30;38.46;101150.25;;;;-48
2019/05/15 11:45:31;;;;;;;2.02;1.57;;;;;;;20.28;38.48;101147.73;;;;-44
2019/05/15 11:48:31;;;;;;;1.58;1.48;;;;;;;20.27;38.53;101149.75;;;;-44
2019/05/15 11:51:31;;;;;;;1.64;1.46;;;;;;;20.26;38.66;101144.00;;;;-40
2019/05/15 11:54:31;;;;;;;1.66;1.43;;;;;;;20.24;38.68;101145.11;;;;-40
2019/05/15 11:57:31;;;;;;;1.93;1.61;;;;;;;20.22;38.68;101139.30;;;;-47
2019/05/15 12:00:31;;;;;;;2.02;1.49;;;;;;;20.22;38.71;101135.83;;;;-47
2019/05/15 12:03:31;;;;;;;1.71;1.50;;;;;;;20.20;38.68;101136.52;;;;-47
2019/05/15 12:06:31;;;;;;;1.75;1.40;;;;;;;20.20;38.77;101127.84;;;;-47
2019/05/15 12:09:31;;;;;;;2.01;1.39;;;;;;;20.18;38.82;101121.37;;;;-48
2019/05/15 12:12:31;;;;;;;1.67;1.40;;;;;;;20.17;38.79;101122.83;;;;-47
2019/05/15 12:15:31;;;;;;;1.50;1.40;;;;;;;20.16;38.78;101116.41;;;;-47
2019/05/15 12:18:31;;;;;;;2.18;1.38;;;;;;;20.15;38.80;101111.98;;;;-48
2019/05/15 12:21:31;;;;;;;2.91;1.43;;;;;;;20.14;38.83;101110.42;;;;-41
2019/05/15 12:24:31;;;;;;;1.99;1.52;;;;;;;20.12;38.81;101113.52;;;;-44
2019/05/15 12:27:31;;;;;;;2.84;1.57;;;;;;;20.12;38.83;101115.52;;;;-44
2019/05/15 12:30:31;;;;;;;1.48;1.38;;;;;;;20.11;38.82;101109.88;;;;-40
2019/05/15 12:33:31;;;;;;;1.94;1.59;;;;;;;20.14;38.61;101110.42;;;;-41
2019/05/15 12:36:31;;;;;;;1.49;1.39;;;;;;;20.19;38.74;101108.41;;;;-39
2019/05/15 12:39:31;;;;;;;1.51;1.40;;;;;;;20.23;38.58;101108.55;;;;-40
2019/05/15 12:42:31;;;;;;;1.73;1.42;;;;;;;20.25;38.55;101106.08;;;;-39
2019/05/15 12:45:31;;;;;;;1.87;1.40;;;;;;;20.27;38.59;101108.48;;;;-40
2019/05/15 12:48:31;;;;;;;2.57;1.40;;;;;;;20.29;38.55;101107.59;;;;-45
2019/05/15 12:51:31;;;;;;;1.59;1.34;;;;;;;20.30;38.48;101100.80;;;;-44
2019/05/15 12:54:31;;;;;;;1.50;1.40;;;;;;;20.32;38.48;101093.42;;;;-45
2019/05/15 12:57:30;;;;;;;2.31;1.50;;;;;;;20.34;38.40;101088.22;;;;-38
2019/05/15 13:00:30;;;;;;;5.11;1.47;;;;;;;20.37;38.41;101084.02;;;;-41
2019/05/15 13:03:31;;;;;;;3.51;1.53;;;;;;;20.40;38.35;101084.16;;;;-38
2019/05/15 13:06:30;;;;;;;1.67;1.45;;;;;;;20.42;38.40;101078.89;;;;-39
2019/05/15 13:09:31;;;;;;;2.30;1.40;;;;;;;20.37;38.53;101081.50;;;;-43
2019/05/15 13:12:31;;;;;;;3.02;1.33;;;;;;;20.34;38.74;101075.47;;;;-46
2019/05/15 13:15:31;;;;;;;3.57;1.46;;;;;;;20.39;38.60;101074.31;;;;-39
2019/05/15 13:18:31;;;;;;;2.02;1.19;;;;;;;20.40;38.67;101074.67;;;;-39
2019/05/15 13:21:31;;;;;;;3.70;1.43;;;;;;;20.40;38.57;101071.36;;;;-41
2019/05/15 13:24:31;;;;;;;2.61;1.44;;;;;;;20.40;38.67;101068.80;;;;-40
2019/05/15 13:27:31;;;;;;;2.92;1.59;;;;;;;20.41;38.77;101073.92;;;;-40
2019/05/15 13:30:31;;;;;;;2.95;1.41;;;;;;;20.43;38.84;101065.59;;;;-39
2019/05/15 13:33:31;;;;;;;4.21;1.69;;;;;;;20.35;38.83;101066.73;;;;-40
2019/05/15 13:36:31;;;;;;;3.94;1.50;;;;;;;20.39;38.59;101062.81;;;;-40
2019/05/15 13:39:31;;;;;;;2.41;1.48;;;;;;;20.40;38.82;101058.83;;;;-40
2019/05/15 13:42:30;;;;;;;2.59;1.47;;;;;;;20.40;38.90;101057.05;;;;-40
2019/05/15 13:45:31;;;;;;;2.15;1.46;;;;;;;20.40;38.98;101051.89;;;;-40
2019/05/15 13:48:31;;;;;;;3.48;1.40;;;;;;;20.39;38.96;101052.23;;;;-40
2019/05/15 13:51:31;;;;;;;5.06;1.55;;;;;;;20.36;39.13;101049.41;;;;-39
2019/05/15 13:54:31;;;;;;;2.02;1.40;;;;;;;20.39;38.89;101050.06;;;;-40
2019/05/15 14:01:05;;;;;;;2.55;1.50;;;;;;;20.40;38.99;101047.03;;;;-49
2019/05/15 14:08:04;;;;;;;2.23;1.50;;;;;;;20.40;38.99;101037.02;;;;-40
2019/05/15 14:11:04;;;;;;;3.28;1.49;;;;;;;20.39;38.91;101033.27;;;;-39
2019/05/15 14:14:04;;;;;;;1.61;1.31;;;;;;;20.38;38.93;101023.34;;;;-43
2019/05/15 14:17:04;;;;;;;2.16;1.49;;;;;;;20.39;38.92;101019.70;;;;-43
2019/05/15 14:20:03;;;;;;;1.53;1.40;;;;;;;20.39;39.01;101014.42;;;;-45
2019/05/15 14:25:45;;;;;;;5.69;1.57;;;;;;;20.18;39.10;101010.75;;;;-52
2019/05/15 14:28:44;;;;;;;3.39;1.65;;;;;;;20.12;39.10;101014.57;;;;-51
2019/05/15 14:31:45;;;;;;;2.95;1.58;;;;;;;20.05;39.25;101013.09;;;;-51
2019/05/15 14:34:45;;;;;;;1.73;1.49;;;;;;;20.01;39.38;101009.25;;;;-51
2019/05/15 14:37:44;;;;;;;2.81;1.49;;;;;;;19.97;39.39;101005.54;;;;-51
2019/05/15 14:40:45;;;;;;;1.97;1.40;;;;;;;19.95;39.45;100997.45;;;;-51
2019/05/15 14:43:45;;;;;;;3.19;1.47;;;;;;;19.93;39.50;101001.50;;;;-52
2019/05/15 14:46:44;;;;;;;1.90;1.50;;;;;;;19.89;39.59;101003.52;;;;-51
2019/05/15 14:49:45;;;;;;;2.33;1.41;;;;;;;19.88;39.52;101005.70;;;;-51
2019/05/15 14:52:45;;;;;;;1.78;1.42;;;;;;;19.86;39.64;101008.38;;;;-51
2019/05/15 14:55:45;;;;;;;2.73;1.49;;;;;;;19.84;39.60;101002.25;;;;-52
2019/05/15 14:58:45;;;;;;;3.27;1.50;;;;;;;19.82;39.68;101000.80;;;;-51
2019/05/15 15:01:45;;;;;;;2.81;1.37;;;;;;;19.80;39.60;100996.45;;;;-51
2019/05/15 15:04:45;;;;;;;1.47;1.33;;;;;;;19.78;39.75;101000.69;;;;-51
2019/05/15 15:07:44;;;;;;;1.99;1.41;;;;;;;19.77;39.74;101000.30;;;;-51
2019/05/15 15:10:44;;;;;;;3.07;1.49;;;;;;;19.74;39.80;100988.52;;;;-51
2019/05/15 15:13:45;;;;;;;1.87;1.43;;;;;;;19.74;39.77;100981.21;;;;-51
2019/05/15 15:16:45;;;;;;;1.95;1.39;;;;;;;19.73;39.75;100985.98;;;;-51
2019/05/15 15:19:44;;;;;;;1.89;1.51;;;;;;;19.71;39.80;100986.98;;;;-53
2019/05/15 15:22:45;;;;;;;1.55;1.43;;;;;;;19.71;39.78;100990.40;;;;-53
2019/05/15 15:25:45;;;;;;;1.56;1.35;;;;;;;19.70;39.73;100988.88;;;;-53
2019/05/15 15:28:45;;;;;;;1.86;1.23;;;;;;;19.69;39.81;100988.79;;;;-53
2019/05/15 15:31:45;;;;;;;2.45;1.37;;;;;;;19.68;39.79;100988.57;;;;-53
2019/05/15 15:34:45;;;;;;;1.63;1.41;;;;;;;19.67;39.82;100982.76;;;;-53
2019/05/15 15:37:45;;;;;;;1.93;1.37;;;;;;;19.66;39.84;100987.50;;;;-53
2019/05/15 15:40:45;;;;;;;1.71;1.39;;;;;;;19.66;39.84;100986.27;;;;-53
2019/05/15 15:43:45;;;;;;;1.34;1.24;;;;;;;19.65;39.89;100987.17;;;;-53
2019/05/15 15:46:45;;;;;;;2.03;1.33;;;;;;;19.63;39.86;100986.50;;;;-54
2019/05/15 15:49:45;;;;;;;2.05;1.34;;;;;;;19.63;39.86;100985.49;;;;-53
2019/05/15 15:52:45;;;;;;;1.65;1.33;;;;;;;19.65;40.06;100997.44;;;;-58
2019/05/15 15:55:45;;;;;;;1.49;1.37;;;;;;;19.67;40.14;101000.02;;;;-52
2019/05/15 15:58:45;;;;;;;2.01;1.27;;;;;;;19.66;40.14;100993.03;;;;-52
2019/05/15 16:01:45;;;;;;;1.43;1.33;;;;;;;19.66;40.26;100999.56;;;;-51
2019/05/15 16:04:45;;;;;;;1.45;1.30;;;;;;;19.66;40.38;100999.73;;;;-51
2019/05/15 16:07:44;;;;;;;2.61;1.43;;;;;;;19.67;40.38;101001.62;;;;-52
2019/05/15 16:10:44;;;;;;;2.59;1.39;;;;;;;19.69;40.50;100998.00;;;;-52
2019/05/15 16:13:45;;;;;;;1.90;1.39;;;;;;;19.70;40.51;100996.48;;;;-61
2019/05/15 16:16:45;;;;;;;1.42;1.30;;;;;;;19.70;40.53;100998.54;;;;-55
2019/05/15 16:19:45;;;;;;;1.89;1.30;;;;;;;19.70;40.52;100993.13;;;;-57
2019/05/15 16:22:45;;;;;;;1.40;1.30;;;;;;;19.71;40.51;100988.66;;;;-57
2019/05/15 16:25:45;;;;;;;6.54;1.67;;;;;;;19.72;40.71;100991.50;;;;-59
2019/05/15 16:28:45;;;;;;;6.51;1.55;;;;;;;19.73;40.71;100988.09;;;;-55
2019/05/15 16:31:44;;;;;;;3.97;1.48;;;;;;;19.74;40.82;100988.59;;;;-55
2019/05/15 16:34:45;;;;;;;4.89;1.41;;;;;;;19.75;40.68;100990.82;;;;-55
2019/05/15 16:37:45;;;;;;;6.67;1.50;;;;;;;19.75;40.63;100988.31;;;;-51
2019/05/15 16:40:45;;;;;;;7.38;1.46;;;;;;;19.76;40.64;100988.03;;;;-51
2019/05/15 16:43:45;;;;;;;3.25;1.40;;;;;;;19.77;40.64;100991.32;;;;-52
2019/05/15 16:46:45;;;;;;;6.73;1.51;;;;;;;19.74;40.66;100993.11;;;;-52
2019/05/15 16:49:45;;;;;;;2.57;1.35;;;;;;;19.73;40.66;100992.22;;;;-52
2019/05/15 16:52:45;;;;;;;2.81;1.47;;;;;;;19.73;40.60;100993.50;;;;-52
2019/05/15 16:55:45;;;;;;;2.39;1.32;;;;;;;19.71;40.60;100988.70;;;;-52
2019/05/15 16:58:44;;;;;;;2.34;1.49;;;;;;;19.71;40.56;100987.88;;;;-52